CST,Max TemperatureF,Mean TemperatureF,Min TemperatureF,Max Dew PointF,MeanDew PointF,Min DewpointF,Max Humidity, Mean Humidity, Min Humidity, Max Sea Level PressureIn, Mean Sea Level PressureIn, Min Sea Level PressureIn, Max VisibilityMiles, Mean VisibilityMiles, Min VisibilityMiles, Max Wind SpeedMPH, Mean Wind SpeedMPH, Max Gust SpeedMPH,PrecipitationIn, CloudCover, Events, WindDirDegrees
2012-11-1,46,38,29,38,31,24,90,70,50,30.05,30.00,29.93,10,10,10,18,8,25,0.00,2,,337
2012-11-2,38,34,29,30,28,25,92,81,70,30.16,30.11,30.05,10,10,10,10,5,,0.00,4,,50
2012-11-3,41,38,35,36,32,29,95,79,66,30.21,30.18,30.14,10,10,7,6,1,,0.01,8,Rain,58
2012-11-4,42,39,36,38,37,35,100,91,83,30.21,30.16,30.11,10,8,4,10,4,,0.00,8,,75
2012-11-5,41,38,36,42,39,37,100,99,87,30.17,30.09,29.93,7,3,1,10,7,,0.04,8,Rain,118
2012-11-6,42,40,38,40,38,37,99,92,82,30.00,29.86,29.76,10,8,4,24,13,34,0.13,8,Rain,284
2012-11-7,49,42,35,39,37,34,97,86,67,30.11,30.05,30.00,10,10,10,10,6,,0.00,4,,231
2012-11-8,54,44,35,43,37,33,94,82,63,30.02,29.95,29.90,10,10,10,13,7,18,0.00,0,,132
2012-11-9,53,44,35,44,40,36,100,86,70,30.02,29.96,29.86,10,9,5,18,13,24,0.00,2,,57
2012-11-10,71,58,44,58,48,42,100,87,49,29.86,29.59,29.45,10,5,1,22,14,26,0.16,6,Rain-Thunderstorm,122
2012-11-11,49,35,21,49,26,15,100,86,74,29.94,29.79,29.52,10,10,3,24,18,31,0.00,8,Snow,274
2012-11-12,28,24,19,22,18,14,93,84,74,30.25,30.04,29.92,10,10,1,24,15,30,0.00,3,Snow,264
2012-11-13,41,28,15,33,26,14,94,82,64,30.31,30.27,30.24,10,10,10,9,3,,0.00,3,,156
2012-11-14,50,40,29,39,34,29,100,82,58,30.24,30.20,30.12,10,10,5,9,2,,0.00,2,,154
2012-11-15,49,36,22,38,31,19,100,81,57,30.47,30.26,30.09,10,10,4,18,5,20,0.00,1,,305
2012-11-16,42,29,16,30,22,14,92,72,42,30.48,30.39,30.26,10,10,10,13,4,,0.00,0,,128
2012-11-17,56,45,34,42,37,30,90,72,54,30.27,30.19,30.12,10,10,10,15,8,23,0.00,2,,155
2012-11-18,59,49,39,40,37,33,80,64,48,30.13,30.07,30.03,10,10,10,16,8,20,0.00,1,,153
2012-11-19,59,49,39,43,39,36,92,72,55,30.09,30.03,29.99,10,10,7,10,6,,0.00,2,,190
2012-11-20,51,38,24,42,34,24,100,86,61,30.18,30.11,29.99,10,7,0,9,4,,0.00,1,Fog,182
2012-11-21,63,50,36,46,40,33,93,68,45,29.98,29.85,29.65,10,10,10,13,7,20,0.00,0,,170
2012-11-22,54,38,23,46,36,20,97,85,69,30.05,29.77,29.59,10,9,1,29,12,39,0.00,4,Rain-Snow,262
2012-11-23,26,20,14,20,16,12,92,82,73,30.39,30.29,30.06,10,9,4,36,22,43,0.00,4,Snow,302
2012-11-24,31,20,9,24,15,7,95,81,66,30.35,30.05,29.78,10,10,10,15,4,17,0.00,5,,157
2012-11-25,33,28,24,28,23,15,86,79,66,30.18,29.97,29.80,10,10,10,21,11,28,0.00,6,,302
2012-11-26,24,16,9,13,8,5,84,72,58,30.42,30.34,30.19,10,10,10,21,12,28,0.00,1,,301
2012-11-27,41,28,14,27,19,9,94,78,57,30.30,30.17,30.06,10,10,10,14,5,20,0.00,1,,237
2012-11-28,36,31,26,28,26,24,90,81,72,30.32,30.21,30.05,10,10,10,14,7,20,0.00,3,,198
2012-11-29,39,30,20,30,26,18,93,82,63,30.08,30.04,30.01,10,10,7,17,7,20,0.00,1,,53
2012-11-30,36,31,26,34,30,26,99,91,84,30.15,30.08,30.01,10,6,2,15,11,18,0.00,6,,85